Bonneuil-Matours (86) - G

Date : 25/05/2013
Distance : 2,400 km

Place Nom Licence Catégorie Club Temps min/km CN à J-60 Points Différence Nouveau CN
1 VAGNER Christine 3651 D60 5702LO 0:29:37 12'20 4288 4731 +443 4882
2 DEVILLE Nelly 2401 D65 5402LO 0:31:52 13'16 4271 4397 +126 4313
3 VOGT Christiane 2557 D65 6709AL 0:33:44 14'03 3534 4154 +620 3632
4 GERBAUT J-Pierre 962 H70 4012AQ 0:34:32 14'23 3917 4057 +140 3962
5 ARNOULD Chantal 3288 D60 8809LO 0:35:21 14'43 3655 3964 +309 3946
6 FRANTZ Francoise 6886 D65 2904BR 0:35:48 14'55 3625 3914 +289 3727
7 CHALOPIN Catherine 3674 D60 2105BO 0:36:03 15'01 3791 3887 +96 3797
8 DUBROCA Monique 633 D65 3308AQ 0:37:57 15'48 4288 3692 -596 4213
9 LARMINACH Andre 646 H70 3308AQ 0:38:07 15'52 4053 3676 -377 3995
10 BIGOT Martine 20759 D60 5116CA 0:39:26 16'25 2285 3553 +1268 2534
11 ABISSE Jacques 703 H70 2508FC 0:39:38 16'30 3739 3535 -204 4011
12 GIBIAT Danielle 3547 D60 8405PR 0:40:43 16'57 3358 3441 +83 3358
13 BLASCO Nicole 395 D65 2406AQ 0:40:51 17'01 3662 3430 -232 3672
14 RICHARD Nicole 14245 D65 0207PI 0:41:03 17'06 3243 3413 +170 3337
15 ABISSE Gisele 701 D70 2508FC 0:41:58 17'29 2953 3339 +386 3287
16 BRUNEL Marie-Jo 8761 D60 8903BO 0:41:59 17'29 3438 3337 -101 3537
17 DIEUDONNE Madeleine 1380 D65 7808IF 0:42:10 17'34 3965 3323 -642 3771
18 TESTOUD Philippe 935 H70 7707IF 0:42:13 17'35 3417 3319 -98 3304
19 CALANDOT Michelle 2927 D60 1403NM 0:42:19 17'37 2813 3311 +498 2895
20 GERBEAUX Marie-jeanne 22417 D60 6205NO 0:42:32 17'43 3233 3294 +61 3301
21 BLASCO Serge 396 H70 2406AQ 0:43:14 18'00 3745 3241 -504 3676
22 BEAUBOIS Alain 1565 H70 3319AQ 0:44:18 18'27 3152 3163 +11 3242
23 ROBERT Francoise 6491 D65 6913RA 0:45:21 18'53 3555 3090 -465 3825
24 DOMENICI J-Claude 1052 H70 1705PC 0:45:25 18'55 3530 3085 -445 3552
25 MOULIERE M-Bernadette 2888 D70 0207PI 0:45:31 18'57 3414 3078 -336 3376
26 BERGER M-Jose 7182 D60 5703LO 0:45:39 19'01 3433 3069 -364 3406
27 OUDIN M-Reine 7574 D60 6804AL 0:46:01 19'10 3227 3045 -182 3238
28 JEANPIERRE M-Therese 3302 D70 8809LO 0:46:04 19'11 3124 3042 -82 3166
29 GANDON J-Claude 249 H70 6906RA 0:47:06 19'37 3917 2975 -942 3714
30 ILLES Dominique 3515 D60 4802LR 0:48:49 20'20 3661 2870 -791 3519
31 DRAULT J-Raymond 4234 H70 8702LI 0:49:44 20'43 2896 2817 -79 2894
32 HELIOT Claude 2349 H70 6906RA 0:50:54 21'12 3312 2753 -559 3312
33 LEMERCIER Jocelyne 2474 D60 5407LO 0:52:26 21'50 2730 2672 -58 2762
34 PENALVA Roger 1706 H70 1705PC 0:55:39 23'11 2341 2518 +177 2454
35 POGU Paulette 4671 D60 5402LO 0:55:59 23'19 2914 2503 -411 3005
36 DIRRINGER M-Claude 15630 D65 4902PL 0:56:26 23'30 2752 2483 -269 2719
37 ALLIES Anne 23146 D60 4802LR 0:57:26 23'55 1825 2440 +615 2084
38 DUBIEF M-Luce 1975 D70 9006FC 0:58:27 24'21 2397 2781
39 ETIENNE Bernadette 15324 D60 8807LO 0:59:36 24'50 2869 2351 -518 3007
40 THIEBAULT Monique 5033 D65 3318AQ 1:00:18 25'07 3241 2324 -917 3099
41 BLUM Sylvain 13672 H55 5116CA 1:01:40 25'41 2603 2272 -331 2643
42 PONCE Bernard 971 H70 0801CA 1:01:45 25'43 2528 2269 -259 2756
43 DUBIEF Roger 1976 H70 9006FC 1:02:03 25'51 2258 3585
44 CABON Monique 96 D60 2904BR 1:07:05 27'57 2559 2089 -470 2837
45 HABERKORN Didier 2716 H70 2105BO 1:08:07 28'22 3370 2057 -1313 3042
46 GUICHARDON Georges 570 H70 4504CE 1:10:48 29'30 2162 1979 -183 2156
47 COUPEY Guy 5118 H70 2704NM 1:12:45 30'18 2865 1926 -939 2843
48 LUDEWIG-JAMES Carol 15894 D70 5907NO 1:13:12 30'30 1952 1914 -38 2024
49 DODIN Genevieve 4392 D65 8809LO 1:16:44 31'58 2468 1826 -642 2530
50 POUPIER Claudine 13991 D60 7203PL 1:17:48 32'25 2483 1801 -682 2547
51 LAGOIDET Colette 3619 D70 4012AQ 1:20:22 33'29 1749 1743 -6 1830
52 LARMINACH Genevieve 647 D65 3308AQ 1:20:37 33'35 2361 1738 -623 2189
53 THIEBAULT M-Paule 4490 D60 6804AL 1:20:41 33'37 2014 1737 -277 2081
54 BASTIEN-FATH Nicole 8954 D65 5402LO 1:21:26 33'55 2248 1721 -527 2252
55 LAUNEY Noella 11368 D70 7203PL 1:22:51 34'31 1960 1691 -269 1953
56 BAUDOIN Annie 16634 D65 0615AZ 1:27:54 36'37 2546 1594 -952 2667
57 SAUGET Colette 24530 D65 7004FC 1:33:51 39'06 976 1493 +517 1240
58 RIMETZ Marcelline 22235 D60 6208NO 1:44:27 43'31 1947 1341 -606 2048
EJSMONT Martine 14164 D65 6203NO pm None 0 0 1730
ROLLET Marie-Madeleine 2413 D65 5415LO pm None 2721 0 2622
BURBAUD Chantal 8559 D65 4010AQ pm None 2460 0 2079